Time;durP1;ratioP1;P1;durP2;ratioP2;P2;SDS_P1;SDS_P2;PMS_P1;PMS_P2;Temp;Humidity;BMP_temperature;BMP_pressure;BME280_temperature;BME280_humidity;BME280_pressure;Samples;Min_cycle;Max_cycle;Signal;HPM_P1;HPM_P2
2022/05/08 00:01:47;;;;;;;;;;;13.80;99.90;;;;;;5051519;28;19909;-68
2022/05/08 00:04:12;;;;;;;;;;;13.80;99.90;;;;;;5052887;28;19923;-69
2022/05/08 00:06:38;;;;;;;;;;;13.80;99.90;;;;;;5051612;28;20374;-67
2022/05/08 00:09:03;;;;;;;;;;;13.70;99.90;;;;;;5050644;28;20285;-68
2022/05/08 00:11:29;;;;;;;;;;;13.60;99.90;;;;;;5056824;28;20355;-68
2022/05/08 00:13:55;;;;;;;;;;;13.60;99.90;;;;;;5053026;28;20235;-68
2022/05/08 00:16:20;;;;;;;;;;;13.70;99.90;;;;;;5035595;28;20279;-67
2022/05/08 00:18:46;;;;;;;;;;;13.60;99.90;;;;;;5052104;28;19915;-68
2022/05/08 00:21:11;;;;;;;;;;;13.50;99.90;;;;;;5053651;28;19935;-67
2022/05/08 00:23:37;;;;;;;;;;;13.50;99.90;;;;;;5034702;28;19913;-69
2022/05/08 00:26:07;;;;;;;;;;;13.50;99.90;;;;;;5062401;28;19973;-68
2022/05/08 00:28:33;;;;;;;;;;;13.40;99.90;;;;;;5054327;28;20018;-67
2022/05/08 00:30:58;;;;;;;;;;;13.40;99.90;;;;;;5052060;28;19924;-68
2022/05/08 00:33:24;;;;;;;;;;;13.40;99.90;;;;;;5053365;28;19909;-70
2022/05/08 00:35:50;;;;;;;;;;;13.40;99.90;;;;;;5052931;28;19913;-68
2022/05/08 00:38:15;;;;;;;;;;;13.40;99.90;;;;;;5054773;28;20354;-69
2022/05/08 00:40:41;;;;;;;;;;;13.40;99.90;;;;;;5052831;28;20286;-69
2022/05/08 00:43:28;;;;;;;;;;;13.30;99.90;;;;;;5053613;28;19959;-68
2022/05/08 00:45:55;;;;;;;;;;;13.30;99.90;;;;;;5043029;28;19956;-68
2022/05/08 00:48:20;;;;;;;;;;;13.20;99.90;;;;;;5051129;28;19908;-68
2022/05/08 00:50:46;;;;;;;;;;;13.20;99.90;;;;;;5054091;28;19931;-69
2022/05/08 00:53:11;;;;;;;;;;;13.10;99.90;;;;;;5049814;28;19917;-68
2022/05/08 00:55:37;;;;;;;;;;;13.10;99.90;;;;;;5054633;28;19937;-68
2022/05/08 00:58:03;;;;;;;;;;;13.00;99.90;;;;;;5053549;28;19912;-67
2022/05/08 01:00:29;;;;;;;;;;;12.90;99.90;;;;;;5050755;28;20007;-68
2022/05/08 01:02:57;;;;;;;;;;;13.00;99.90;;;;;;5051668;28;19992;-67
2022/05/08 01:05:23;;;;;;;;;;;12.90;99.90;;;;;;5034040;28;19921;-68
2022/05/08 01:07:49;;;;;;;;;;;12.90;99.90;;;;;;5036332;28;20385;-67
2022/05/08 01:10:15;;;;;;;;;;;12.80;99.90;;;;;;5034807;28;19931;-68
2022/05/08 01:12:44;;;;;;;;;;;12.80;99.90;;;;;;5048755;28;19916;-69
2022/05/08 01:15:09;;;;;;;;;;;12.80;99.90;;;;;;5045797;28;19917;-68
2022/05/08 01:17:35;;;;;;;;;;;12.70;99.90;;;;;;5050107;28;19912;-68
2022/05/08 01:20:00;;;;;;;;;;;12.70;99.90;;;;;;5029849;28;20006;-68
2022/05/08 01:22:26;;;;;;;;;;;12.70;99.90;;;;;;5028390;28;19908;-68
2022/05/08 01:24:51;;;;;;;;;;;12.60;99.90;;;;;;5046449;28;19917;-68
2022/05/08 01:27:17;;;;;;;;;;;12.60;99.90;;;;;;5028589;28;20122;-68
2022/05/08 01:29:44;;;;;;;;;;;12.60;99.90;;;;;;5054609;28;20379;-68
2022/05/08 01:32:10;;;;;;;;;;;12.60;99.90;;;;;;5049605;28;20362;-67
2022/05/08 01:34:35;;;;;;;;;;;12.50;99.90;;;;;;5055762;28;19909;-67
2022/05/08 01:37:01;;;;;;;;;;;12.40;99.90;;;;;;5030420;28;19909;-68
2022/05/08 01:39:27;;;;;;;;;;;12.40;99.90;;;;;;5049441;28;19909;-68
2022/05/08 01:41:52;;;;;;;;;;;12.40;99.90;;;;;;5054664;28;19901;-68
2022/05/08 01:44:18;;;;;;;;;;;12.40;99.90;;;;;;5045892;28;19931;-68
2022/05/08 01:46:43;;;;;;;;;;;12.30;99.90;;;;;;5033870;28;20286;-68
2022/05/08 01:49:09;;;;;;;;;;;12.40;99.90;;;;;;5051760;28;19904;-68
2022/05/08 01:51:35;;;;;;;;;;;12.30;99.90;;;;;;5034300;28;19905;-68
2022/05/08 01:54:02;;;;;;;;;;;12.30;99.90;;;;;;5035758;28;19917;-67
2022/05/08 01:56:28;;;;;;;;;;;12.20;99.90;;;;;;5049093;28;19923;-67
2022/05/08 01:58:53;;;;;;;;;;;12.20;99.90;;;;;;5039310;28;19909;-67
2022/05/08 02:01:19;;;;;;;;;;;12.10;99.90;;;;;;5049146;28;19912;-66
2022/05/08 02:03:45;;;;;;;;;;;12.10;99.90;;;;;;5051369;28;19912;-68
2022/05/08 02:06:10;;;;;;;;;;;12.10;99.90;;;;;;5048354;28;20039;-67
2022/05/08 02:08:36;;;;;;;;;;;12.00;99.90;;;;;;5049777;28;19974;-67
2022/05/08 02:11:01;;;;;;;;;;;12.00;99.90;;;;;;5048903;28;20234;-67
2022/05/08 02:13:27;;;;;;;;;;;11.90;99.90;;;;;;5051047;28;19909;-68
2022/05/08 02:15:52;;;;;;;;;;;11.90;99.90;;;;;;5047578;28;19917;-65
2022/05/08 02:18:18;;;;;;;;;;;11.80;99.90;;;;;;5051146;28;19909;-67
2022/05/08 02:20:43;;;;;;;;;;;11.80;99.90;;;;;;5048621;28;19951;-67
2022/05/08 02:23:09;;;;;;;;;;;11.80;99.90;;;;;;5048303;28;19916;-67
2022/05/08 02:25:37;;;;;;;;;;;11.80;99.90;;;;;;5049394;28;19947;-66
2022/05/08 02:28:03;;;;;;;;;;;11.70;99.90;;;;;;5051987;28;20344;-65
2022/05/08 02:30:29;;;;;;;;;;;11.70;99.90;;;;;;5043614;28;20002;-67
2022/05/08 02:32:54;;;;;;;;;;;11.70;99.90;;;;;;5047415;28;19909;-67
2022/05/08 02:35:21;;;;;;;;;;;11.60;99.90;;;;;;5050466;28;19913;-66
2022/05/08 02:37:48;;;;;;;;;;;11.60;99.90;;;;;;5040817;28;19955;-66
2022/05/08 02:40:14;;;;;;;;;;;11.60;99.90;;;;;;5041543;28;19908;-66
2022/05/08 02:42:40;;;;;;;;;;;11.50;99.90;;;;;;5051325;28;20343;-65
2022/05/08 02:45:08;;;;;;;;;;;11.50;99.90;;;;;;5046345;28;19925;-67
2022/05/08 02:47:34;;;;;;;;;;;11.50;99.90;;;;;;5045309;28;19975;-66
2022/05/08 02:50:00;;;;;;;;;;;11.50;99.90;;;;;;5049374;28;20358;-66
2022/05/08 02:52:26;;;;;;;;;;;11.60;99.90;;;;;;5020094;28;19944;-66
2022/05/08 02:54:51;;;;;;;;;;;11.60;99.90;;;;;;5041593;28;19916;-66
2022/05/08 03:00:05;;;;;;;;;;;11.50;99.90;;;;;;5047513;28;20349;-67
2022/05/08 03:02:31;;;;;;;;;;;11.50;99.90;;;;;;5041974;28;19955;-66
2022/05/08 03:04:57;;;;;;;;;;;11.50;99.90;;;;;;5050476;28;19919;-66
2022/05/08 03:07:22;;;;;;;;;;;11.50;99.90;;;;;;5044264;28;19913;-66
2022/05/08 03:09:48;;;;;;;;;;;11.60;99.90;;;;;;5047667;28;19955;-67
2022/05/08 03:12:13;;;;;;;;;;;11.60;99.90;;;;;;5050437;28;19917;-67
2022/05/08 03:14:39;;;;;;;;;;;11.60;99.90;;;;;;5052093;28;19971;-67
2022/05/08 03:17:05;;;;;;;;;;;11.60;99.90;;;;;;5054079;28;19944;-68
2022/05/08 03:19:31;;;;;;;;;;;11.80;99.90;;;;;;5035810;28;19909;-65
2022/05/08 03:21:57;;;;;;;;;;;11.80;99.90;;;;;;5048694;28;19939;-66
2022/05/08 03:24:23;;;;;;;;;;;11.90;99.90;;;;;;5051916;28;19913;-68
2022/05/08 03:26:48;;;;;;;;;;;11.90;99.90;;;;;;5052101;28;19920;-67
2022/05/08 03:29:14;;;;;;;;;;;11.90;99.90;;;;;;5050889;28;20358;-67
2022/05/08 03:31:39;;;;;;;;;;;11.90;99.90;;;;;;5051240;28;20370;-66
2022/05/08 03:34:05;;;;;;;;;;;12.00;99.90;;;;;;5050711;28;19967;-67
2022/05/08 03:36:30;;;;;;;;;;;12.00;99.90;;;;;;5054924;28;20323;-66
2022/05/08 03:38:59;;;;;;;;;;;12.10;99.90;;;;;;5049502;28;19915;-66
2022/05/08 03:41:24;;;;;;;;;;;12.10;99.90;;;;;;5054170;28;19909;-66
2022/05/08 03:43:51;;;;;;;;;;;12.20;99.90;;;;;;5050284;28;19919;-67
2022/05/08 03:46:17;;;;;;;;;;;12.20;99.90;;;;;;5050108;28;20290;-67
2022/05/08 03:48:42;;;;;;;;;;;12.20;99.90;;;;;;5051954;28;19954;-66
2022/05/08 03:51:08;;;;;;;;;;;12.20;99.90;;;;;;5054219;28;20002;-67
2022/05/08 03:53:33;;;;;;;;;;;12.10;99.90;;;;;;5049950;28;19915;-65
2022/05/08 03:55:59;;;;;;;;;;;12.20;99.90;;;;;;5049782;28;19924;-67
2022/05/08 03:58:26;;;;;;;;;;;12.20;99.90;;;;;;5035500;28;19962;-67
2022/05/08 04:00:51;;;;;;;;;;;12.20;99.90;;;;;;5048181;28;20004;-67
2022/05/08 04:03:17;;;;;;;;;;;12.20;99.90;;;;;;5046000;28;20067;-67
2022/05/08 04:05:42;;;;;;;;;;;12.20;99.90;;;;;;5049659;28;19919;-67
2022/05/08 04:08:08;;;;;;;;;;;12.30;99.90;;;;;;5051466;28;19970;-65
2022/05/08 04:10:37;;;;;;;;;;;12.40;99.90;;;;;;5053381;28;19996;-67
2022/05/08 04:13:02;;;;;;;;;;;12.40;99.90;;;;;;5050996;28;19915;-67
2022/05/08 04:18:12;;;;;;;;;;;12.50;99.90;;;;;;5053820;28;19921;-69
2022/05/08 04:20:38;;;;;;;;;;;12.60;99.90;;;;;;5047716;28;19916;-67
2022/05/08 04:25:53;;;;;;;;;;;12.40;99.90;;;;;;5050427;28;19919;-66
2022/05/08 04:28:19;;;;;;;;;;;12.30;99.90;;;;;;5052600;28;20418;-67
2022/05/08 04:30:45;;;;;;;;;;;12.40;99.90;;;;;;5051162;28;20000;-66
2022/05/08 04:33:11;;;;;;;;;;;12.30;99.90;;;;;;5053464;28;19908;-66
2022/05/08 04:35:36;;;;;;;;;;;12.20;99.90;;;;;;5052259;28;20378;-67
2022/05/08 04:38:02;;;;;;;;;;;12.30;99.90;;;;;;5052594;28;19952;-66
2022/05/08 04:40:27;;;;;;;;;;;12.20;99.90;;;;;;5053674;28;19909;-66
2022/05/08 04:42:53;;;;;;;;;;;12.10;99.90;;;;;;5053992;28;19912;-67
2022/05/08 04:45:18;;;;;;;;;;;12.10;99.90;;;;;;5041884;28;20340;-67
2022/05/08 04:47:44;;;;;;;;;;;12.10;99.90;;;;;;5047647;28;19909;-66
2022/05/08 04:50:09;;;;;;;;;;;12.10;99.90;;;;;;5046821;28;19908;-67
2022/05/08 04:52:35;;;;;;;;;;;12.10;99.90;;;;;;5050877;28;20062;-66
2022/05/08 04:55:03;;;;;;;;;;;12.10;99.90;;;;;;5053531;28;19913;-66
2022/05/08 04:57:29;;;;;;;;;;;12.10;99.90;;;;;;5035759;28;19915;-66
2022/05/08 04:59:55;;;;;;;;;;;12.10;99.90;;;;;;5039240;28;20545;-67
2022/05/08 05:02:20;;;;;;;;;;;12.20;99.90;;;;;;5045964;28;19962;-65
2022/05/08 05:04:46;;;;;;;;;;;12.10;99.90;;;;;;5051413;28;19917;-66
2022/05/08 05:07:12;;;;;;;;;;;12.10;99.90;;;;;;5040807;28;20370;-65
2022/05/08 05:09:37;;;;;;;;;;;12.10;99.90;;;;;;5049446;28;19908;-67
2022/05/08 05:12:03;;;;;;;;;;;12.30;99.90;;;;;;5033459;28;20314;-67
2022/05/08 05:14:32;;;;;;;;;;;12.20;99.90;;;;;;5051855;28;19917;-66
2022/05/08 05:17:00;;;;;;;;;;;12.30;99.90;;;;;;5050532;28;20058;-67
2022/05/08 05:19:28;;;;;;;;;;;12.30;99.90;;;;;;5047124;28;19941;-66
2022/05/08 05:21:54;;;;;;;;;;;12.40;99.90;;;;;;5052805;28;20317;-66
2022/05/08 05:24:20;;;;;;;;;;;12.30;99.90;;;;;;5050506;28;19913;-67
2022/05/08 05:26:45;;;;;;;;;;;12.30;99.90;;;;;;5050336;28;19948;-66
2022/05/08 05:29:11;;;;;;;;;;;12.40;99.90;;;;;;5050531;28;20369;-67
2022/05/08 05:31:36;;;;;;;;;;;12.50;99.90;;;;;;5047300;28;19934;-67
2022/05/08 05:34:02;;;;;;;;;;;12.60;99.90;;;;;;5045547;28;19915;-65
2022/05/08 05:36:27;;;;;;;;;;;12.60;99.90;;;;;;5051651;28;19917;-66
2022/05/08 05:38:53;;;;;;;;;;;12.70;99.90;;;;;;5050974;28;19912;-67
2022/05/08 05:41:18;;;;;;;;;;;12.70;99.90;;;;;;5051265;28;19996;-67
2022/05/08 05:43:44;;;;;;;;;;;12.90;99.90;;;;;;5050645;28;19915;-68
2022/05/08 05:48:54;;;;;;;;;;;13.10;99.90;;;;;;5051206;28;20372;-67
2022/05/08 05:51:19;;;;;;;;;;;13.20;99.90;;;;;;5051912;28;19905;-67
2022/05/08 05:53:45;;;;;;;;;;;13.20;99.90;;;;;;5050264;28;19909;-66
2022/05/08 05:56:11;;;;;;;;;;;13.10;99.90;;;;;;5050752;28;19904;-67
2022/05/08 05:58:36;;;;;;;;;;;13.10;99.90;;;;;;5045018;28;19917;-66
2022/05/08 06:01:02;;;;;;;;;;;13.10;99.90;;;;;;5049487;28;19931;-66
2022/05/08 06:03:27;;;;;;;;;;;13.20;99.90;;;;;;5050046;28;19909;-66
2022/05/08 06:05:53;;;;;;;;;;;13.20;99.90;;;;;;5041149;28;19963;-68
2022/05/08 06:08:19;;;;;;;;;;;13.20;99.90;;;;;;5044112;28;19917;-67
2022/05/08 06:10:44;;;;;;;;;;;13.20;99.90;;;;;;5025709;28;20413;-66
2022/05/08 06:13:10;;;;;;;;;;;13.10;99.90;;;;;;5048896;28;19909;-66
2022/05/08 06:15:35;;;;;;;;;;;13.10;99.90;;;;;;5049394;28;19924;-66
2022/05/08 06:18:01;;;;;;;;;;;13.10;99.90;;;;;;5047957;28;19916;-66
2022/05/08 06:20:26;;;;;;;;;;;13.20;99.90;;;;;;5026355;28;19996;-67
2022/05/08 06:22:52;;;;;;;;;;;13.30;99.90;;;;;;5049004;28;20338;-66
2022/05/08 06:25:17;;;;;;;;;;;13.30;99.90;;;;;;5045578;28;20359;-66
2022/05/08 06:27:43;;;;;;;;;;;13.40;99.90;;;;;;5045829;28;19916;-66
2022/05/08 06:30:09;;;;;;;;;;;13.50;99.90;;;;;;5051169;28;19909;-67
2022/05/08 06:32:34;;;;;;;;;;;13.50;99.90;;;;;;5033636;28;19909;-66
2022/05/08 06:35:00;;;;;;;;;;;13.50;99.90;;;;;;5049489;28;20417;-67
2022/05/08 06:37:26;;;;;;;;;;;13.60;99.90;;;;;;5051290;28;20397;-67
2022/05/08 06:39:51;;;;;;;;;;;13.80;99.90;;;;;;5055179;28;20019;-67
2022/05/08 06:42:18;;;;;;;;;;;13.80;99.90;;;;;;5051077;28;20345;-66
2022/05/08 06:44:44;;;;;;;;;;;13.90;99.90;;;;;;5050621;28;20007;-66
2022/05/08 06:47:09;;;;;;;;;;;14.00;99.90;;;;;;5052144;28;20054;-67
2022/05/08 06:49:35;;;;;;;;;;;14.00;99.90;;;;;;5054992;28;19920;-68
2022/05/08 06:52:00;;;;;;;;;;;14.00;99.90;;;;;;5025393;28;19908;-67
2022/05/08 06:54:29;;;;;;;;;;;14.10;99.90;;;;;;5032571;28;19917;-68
2022/05/08 06:56:56;;;;;;;;;;;13.90;99.90;;;;;;5053287;28;19960;-68
2022/05/08 07:02:07;;;;;;;;;;;13.90;99.90;;;;;;5056395;28;19916;-66
2022/05/08 07:04:33;;;;;;;;;;;13.80;99.90;;;;;;5025663;28;20396;-66
2022/05/08 07:06:58;;;;;;;;;;;13.80;99.90;;;;;;5046361;28;19952;-67
2022/05/08 07:09:28;;;;;;;;;;;13.90;99.90;;;;;;5043772;28;20001;-68
2022/05/08 07:11:53;;;;;;;;;;;14.00;99.90;;;;;;5047955;28;19909;-67
2022/05/08 07:14:19;;;;;;;;;;;14.10;99.90;;;;;;5043874;28;19919;-67
2022/05/08 07:16:45;;;;;;;;;;;14.20;99.90;;;;;;5047532;28;20297;-69
2022/05/08 07:19:10;;;;;;;;;;;14.50;99.90;;;;;;5046046;28;19916;-66
2022/05/08 07:21:36;;;;;;;;;;;14.30;99.90;;;;;;5051702;28;19915;-66
2022/05/08 07:24:02;;;;;;;;;;;14.50;99.90;;;;;;5042646;28;19947;-67
2022/05/08 07:26:33;;;;;;;;;;;14.60;99.90;;;;;;5046207;28;19912;-68
2022/05/08 07:28:59;;;;;;;;;;;14.70;99.90;;;;;;5046078;28;19908;-68
2022/05/08 07:31:25;;;;;;;;;;;14.70;99.90;;;;;;5040699;28;19924;-67
2022/05/08 07:36:36;;;;;;;;;;;14.80;99.90;;;;;;5012966;28;20350;-67
2022/05/08 07:39:02;;;;;;;;;;;15.00;99.90;;;;;;5048723;28;20067;-65
2022/05/08 07:41:30;;;;;;;;;;;15.00;99.90;;;;;;5041397;28;19920;-69
2022/05/08 07:43:56;;;;;;;;;;;15.00;99.90;;;;;;5031246;28;19993;-67
2022/05/08 07:46:23;;;;;;;;;;;14.90;99.90;;;;;;5030632;28;20007;-67
2022/05/08 07:48:49;;;;;;;;;;;14.80;99.90;;;;;;5049908;28;19944;-67
2022/05/08 07:51:14;;;;;;;;;;;14.90;99.90;;;;;;5053362;28;20021;-68
2022/05/08 07:53:40;;;;;;;;;;;15.10;99.90;;;;;;5045334;28;20030;-67
2022/05/08 07:56:05;;;;;;;;;;;15.20;99.90;;;;;;5034112;28;19913;-67
2022/05/08 07:58:32;;;;;;;;;;;15.30;99.90;;;;;;5049132;28;20255;-67
2022/05/08 08:00:58;;;;;;;;;;;15.30;99.90;;;;;;5047830;28;19920;-67
2022/05/08 08:03:25;;;;;;;;;;;15.30;99.90;;;;;;5049121;28;19916;-67
2022/05/08 08:05:51;;;;;;;;;;;15.20;99.90;;;;;;5053554;28;20362;-66
2022/05/08 08:08:17;;;;;;;;;;;15.10;99.90;;;;;;5047337;28;19916;-67
2022/05/08 08:10:46;;;;;;;;;;;15.00;99.90;;;;;;5043899;28;20003;-66
2022/05/08 08:13:17;;;;;;;;;;;14.90;99.90;;;;;;5046097;28;19912;-66
2022/05/08 08:15:45;;;;;;;;;;;14.90;99.90;;;;;;5042240;28;20676;-67
2022/05/08 08:18:16;;;;;;;;;;;15.00;99.90;;;;;;5024819;28;19917;-68
2022/05/08 08:20:42;;;;;;;;;;;15.10;99.90;;;;;;5040353;28;20595;-68
2022/05/08 08:23:08;;;;;;;;;;;15.30;99.90;;;;;;5046755;28;20531;-65
2022/05/08 08:25:33;;;;;;;;;;;15.40;99.90;;;;;;5037662;28;19967;-68
2022/05/08 08:27:59;;;;;;;;;;;15.40;99.90;;;;;;5043326;28;19923;-67
2022/05/08 08:30:25;;;;;;;;;;;15.30;99.90;;;;;;5034386;28;19909;-69
2022/05/08 08:32:50;;;;;;;;;;;15.40;99.90;;;;;;5052412;28;20391;-68
2022/05/08 08:35:16;;;;;;;;;;;15.30;99.90;;;;;;5053789;28;19909;-67
2022/05/08 08:37:41;;;;;;;;;;;15.10;99.90;;;;;;5054488;28;19919;-68
2022/05/08 08:40:07;;;;;;;;;;;15.20;99.90;;;;;;5053740;28;20058;-67
2022/05/08 08:42:33;;;;;;;;;;;15.40;99.90;;;;;;5047827;28;19908;-68
2022/05/08 08:47:54;;;;;;;;;;;15.60;99.90;;;;;;5048134;28;19919;-69
2022/05/08 08:50:22;;;;;;;;;;;15.80;99.90;;;;;;5053884;28;19917;-67
2022/05/08 08:52:48;;;;;;;;;;;15.80;99.90;;;;;;5053519;28;19916;-67
2022/05/08 08:55:15;;;;;;;;;;;16.00;99.90;;;;;;5054931;28;19909;-69
2022/05/08 08:57:40;;;;;;;;;;;15.90;99.90;;;;;;5054019;28;19960;-68
2022/05/08 09:00:07;;;;;;;;;;;16.00;99.90;;;;;;5052874;28;19913;-67
2022/05/08 09:02:34;;;;;;;;;;;16.00;99.90;;;;;;5034803;28;20285;-66
2022/05/08 09:05:04;;;;;;;;;;;16.10;99.90;;;;;;5036756;28;19919;-68
2022/05/08 09:07:43;;;;;;;;;;;16.30;99.90;;;;;;5053622;28;19912;-68
2022/05/08 09:10:19;;;;;;;;;;;16.40;99.90;;;;;;5052888;28;19908;-67
2022/05/08 09:13:00;;;;;;;;;;;16.40;99.90;;;;;;5051964;28;19919;-68
2022/05/08 09:15:32;;;;;;;;;;;16.50;99.90;;;;;;5050797;28;19917;-69
2022/05/08 09:18:03;;;;;;;;;;;16.70;99.90;;;;;;5050970;28;19908;-68
2022/05/08 09:20:29;;;;;;;;;;;16.70;99.90;;;;;;5031616;28;20281;-68
2022/05/08 09:23:14;;;;;;;;;;;16.80;99.90;;;;;;5052741;28;19913;-68
2022/05/08 09:25:46;;;;;;;;;;;16.80;99.90;;;;;;5052454;28;20084;-70
2022/05/08 09:28:14;;;;;;;;;;;16.90;99.90;;;;;;5054301;28;19905;-68
2022/05/08 09:30:58;;;;;;;;;;;16.90;99.90;;;;;;5046546;28;19908;-68
2022/05/08 09:33:24;;;;;;;;;;;17.00;99.90;;;;;;5049256;28;19908;-70
2022/05/08 09:35:49;;;;;;;;;;;17.10;99.90;;;;;;5053091;28;19962;-69
2022/05/08 09:38:15;;;;;;;;;;;17.00;99.90;;;;;;5030720;28;19952;-68
2022/05/08 09:40:40;;;;;;;;;;;17.10;99.90;;;;;;5051947;28;19905;-69
2022/05/08 09:43:25;;;;;;;;;;;17.10;99.90;;;;;;5027363;28;20500;-67
2022/05/08 09:45:58;;;;;;;;;;;17.00;99.90;;;;;;5033599;28;19925;-69
2022/05/08 09:48:30;;;;;;;;;;;17.00;99.90;;;;;;5045883;28;19915;-68
2022/05/08 09:50:57;;;;;;;;;;;16.70;99.90;;;;;;5045928;28;20316;-66
2022/05/08 09:53:24;;;;;;;;;;;16.70;99.90;;;;;;5046742;28;19909;-65
2022/05/08 09:55:53;;;;;;;;;;;17.00;99.90;;;;;;5043926;28;19915;-66
2022/05/08 09:58:19;;;;;;;;;;;17.30;99.90;;;;;;5027111;28;19928;-65
2022/05/08 10:00:46;;;;;;;;;;;17.40;99.90;;;;;;5044040;28;19908;-68
2022/05/08 10:03:11;;;;;;;;;;;17.20;99.90;;;;;;5044094;28;19916;-67
2022/05/08 10:05:37;;;;;;;;;;;17.30;99.90;;;;;;5046496;28;19958;-67
2022/05/08 10:08:03;;;;;;;;;;;17.30;99.90;;;;;;5049028;28;19916;-66
2022/05/08 10:16:37;;;;;;;;;;;17.40;99.90;;;;;;5034703;28;19971;-67
2022/05/08 10:19:18;;;;;;;;;;;17.60;99.90;;;;;;5039344;28;19966;-67
2022/05/08 10:21:55;;;;;;;;;;;17.70;99.90;;;;;;5047051;28;19919;-67
2022/05/08 10:24:33;;;;;;;;;;;17.80;99.90;;;;;;5049206;28;19913;-67
2022/05/08 10:27:09;;;;;;;;;;;17.80;99.90;;;;;;5047156;28;20007;-65
2022/05/08 10:29:34;;;;;;;;;;;17.80;99.90;;;;;;5041804;28;20376;-67
2022/05/08 10:32:00;;;;;;;;;;;17.90;99.90;;;;;;5025826;28;19908;-67
2022/05/08 10:34:36;;;;;;;;;;;17.90;99.90;;;;;;5042867;28;19919;-67
2022/05/08 10:37:07;;;;;;;;;;;17.80;99.90;;;;;;5038803;28;19979;-66
2022/05/08 10:39:42;;;;;;;;;;;17.90;99.90;;;;;;5037622;28;19909;-67
2022/05/08 10:42:26;;;;;;;;;;;17.80;99.90;;;;;;5045885;28;19915;-67
2022/05/08 10:44:52;;;;;;;;;;;17.90;99.90;;;;;;5040416;28;20279;-67
2022/05/08 10:47:42;;;;;;;;;;;18.00;99.90;;;;;;5038469;28;19913;-68
2022/05/08 10:50:09;;;;;;;;;;;18.00;99.90;;;;;;5034281;28;19908;-66
2022/05/08 10:52:38;;;;;;;;;;;18.10;99.90;;;;;;5039582;28;19919;-68
2022/05/08 10:55:05;;;;;;;;;;;18.20;99.90;;;;;;5039762;28;20349;-69
2022/05/08 10:57:40;;;;;;;;;;;18.20;99.90;;;;;;5033879;28;19921;-66
2022/05/08 11:00:24;;;;;;;;;;;18.30;99.90;;;;;;5040917;28;20092;-66
2022/05/08 11:02:56;;;;;;;;;;;18.30;99.90;;;;;;5039447;28;19909;-66
2022/05/08 11:05:26;;;;;;;;;;;18.50;99.90;;;;;;5038459;28;19924;-66
2022/05/08 11:07:52;;;;;;;;;;;19.00;99.90;;;;;;5021381;28;19920;-65
2022/05/08 11:10:22;;;;;;;;;;;18.90;99.90;;;;;;5039142;28;19908;-68
2022/05/08 11:13:03;;;;;;;;;;;19.00;99.90;;;;;;5037966;28;19917;-66
2022/05/08 11:15:29;;;;;;;;;;;19.00;98.70;;;;;;5038317;28;20371;-65
2022/05/08 11:18:08;;;;;;;;;;;19.00;98.30;;;;;;5037701;28;19957;-68
2022/05/08 11:20:37;;;;;;;;;;;19.00;98.10;;;;;;5035702;28;20011;-66
2022/05/08 11:23:05;;;;;;;;;;;19.10;98.50;;;;;;5036753;28;19909;-66
2022/05/08 11:25:34;;;;;;;;;;;19.10;97.30;;;;;;5029522;28;19917;-66
2022/05/08 11:28:01;;;;;;;;;;;18.80;97.10;;;;;;5038149;28;19936;-67
2022/05/08 11:30:32;;;;;;;;;;;18.80;97.90;;;;;;5034399;28;20227;-67
2022/05/08 11:36:04;;;;;;;;;;;19.20;96.20;;;;;;5039765;28;19971;-66
2022/05/08 11:38:42;;;;;;;;;;;19.30;91.10;;;;;;5045182;28;19967;-67
2022/05/08 11:41:12;;;;;;;;;;;19.40;92.20;;;;;;5023139;28;19948;-67
2022/05/08 11:43:39;;;;;;;;;;;19.50;92.40;;;;;;5047889;28;19921;-67
2022/05/08 11:46:06;;;;;;;;;;;19.40;91.30;;;;;;5031932;28;19909;-67
2022/05/08 11:48:32;;;;;;;;;;;19.40;91.00;;;;;;5039248;28;20014;-67
2022/05/08 11:50:58;;;;;;;;;;;19.60;90.40;;;;;;5024973;28;19917;-67
2022/05/08 11:53:24;;;;;;;;;;;19.70;89.90;;;;;;5042853;28;19909;-66
2022/05/08 11:55:49;;;;;;;;;;;19.90;87.10;;;;;;5021175;28;20252;-66
2022/05/08 11:58:31;;;;;;;;;;;19.80;88.30;;;;;;5030022;28;19996;-66
2022/05/08 12:00:57;;;;;;;;;;;19.80;88.80;;;;;;5046654;28;19999;-66
2022/05/08 12:03:26;;;;;;;;;;;19.60;90.10;;;;;;5051510;28;19987;-68
2022/05/08 12:06:08;;;;;;;;;;;19.50;89.60;;;;;;5042784;28;20362;-67
2022/05/08 12:08:34;;;;;;;;;;;19.40;90.50;;;;;;5048843;28;20255;-66
2022/05/08 12:10:59;;;;;;;;;;;19.30;90.90;;;;;;5046489;28;19919;-67
2022/05/08 12:13:33;;;;;;;;;;;19.20;90.50;;;;;;5030900;28;19916;-68
2022/05/08 12:16:16;;;;;;;;;;;19.30;90.00;;;;;;5036342;28;20378;-71
2022/05/08 12:19:01;;;;;;;;;;;19.20;90.20;;;;;;5045151;28;19909;-69
2022/05/08 12:21:27;;;;;;;;;;;19.40;90.30;;;;;;5052158;28;19980;-68
2022/05/08 12:23:53;;;;;;;;;;;19.60;90.10;;;;;;5052519;28;20381;-69
2022/05/08 12:26:18;;;;;;;;;;;19.70;90.20;;;;;;5051131;28;19923;-69
2022/05/08 12:28:46;;;;;;;;;;;19.90;88.20;;;;;;5053713;28;20246;-71
2022/05/08 12:31:12;;;;;;;;;;;20.00;86.70;;;;;;5051901;28;20347;-68
2022/05/08 12:33:37;;;;;;;;;;;20.20;87.60;;;;;;5049584;28;19940;-68
2022/05/08 12:36:03;;;;;;;;;;;20.10;86.40;;;;;;5051607;28;19904;-68
2022/05/08 12:38:29;;;;;;;;;;;20.30;86.70;;;;;;5043690;28;19963;-67
2022/05/08 12:40:56;;;;;;;;;;;20.30;86.80;;;;;;5053112;28;19912;-70
2022/05/08 12:43:22;;;;;;;;;;;20.30;88.70;;;;;;5053055;28;19951;-68
2022/05/08 12:45:49;;;;;;;;;;;20.10;87.50;;;;;;5046059;28;19944;-65
2022/05/08 12:48:19;;;;;;;;;;;20.10;88.40;;;;;;5042704;28;20502;-67
2022/05/08 12:50:45;;;;;;;;;;;20.40;88.30;;;;;;5039643;28;19917;-67
2022/05/08 12:53:11;;;;;;;;;;;20.60;87.10;;;;;;5029562;28;19977;-70
2022/05/08 12:55:37;;;;;;;;;;;20.70;88.00;;;;;;5039456;28;19995;-70
2022/05/08 13:00:46;;;;;;;;;;;21.00;85.80;;;;;;5037388;28;19978;-69
2022/05/08 13:03:15;;;;;;;;;;;20.90;85.80;;;;;;5045372;28;20354;-68
2022/05/08 13:05:41;;;;;;;;;;;20.90;85.50;;;;;;5038777;28;20378;-68
2022/05/08 13:08:06;;;;;;;;;;;20.90;85.80;;;;;;5037316;28;20020;-66
2022/05/08 13:10:34;;;;;;;;;;;20.80;85.80;;;;;;5042967;28;20434;-70
2022/05/08 13:13:03;;;;;;;;;;;20.60;85.90;;;;;;5045826;28;19982;-67
2022/05/08 13:15:28;;;;;;;;;;;20.60;85.50;;;;;;5043394;28;19970;-66
2022/05/08 13:17:54;;;;;;;;;;;20.70;85.90;;;;;;5042400;28;20351;-66
2022/05/08 13:20:20;;;;;;;;;;;20.90;86.40;;;;;;5040611;28;19952;-68
2022/05/08 13:22:45;;;;;;;;;;;21.10;84.10;;;;;;5022677;28;19986;-69
2022/05/08 13:25:12;;;;;;;;;;;21.10;84.90;;;;;;5036609;28;19956;-67
2022/05/08 13:27:37;;;;;;;;;;;21.00;81.80;;;;;;5041216;28;20035;-68
2022/05/08 13:30:04;;;;;;;;;;;21.10;82.20;;;;;;5041130;28;20011;-67
2022/05/08 13:32:29;;;;;;;;;;;21.20;81.30;;;;;;5020778;28;19915;-68
2022/05/08 13:34:55;;;;;;;;;;;21.20;82.40;;;;;;5039509;28;19909;-69
2022/05/08 13:37:20;;;;;;;;;;;21.10;82.10;;;;;;5036349;28;19955;-68
2022/05/08 13:39:46;;;;;;;;;;;21.20;80.70;;;;;;5040949;28;20016;-67
2022/05/08 13:42:15;;;;;;;;;;;21.20;81.40;;;;;;5044467;28;19913;-66
2022/05/08 13:44:41;;;;;;;;;;;21.20;80.90;;;;;;5033839;28;19923;-68
2022/05/08 13:47:08;;;;;;;;;;;21.40;80.20;;;;;;5039873;28;19908;-66
2022/05/08 13:49:34;;;;;;;;;;;21.60;79.60;;;;;;5045444;28;19972;-67
2022/05/08 13:51:59;;;;;;;;;;;21.70;78.80;;;;;;5039495;28;19962;-67
2022/05/08 13:54:25;;;;;;;;;;;22.10;78.40;;;;;;5043529;28;19913;-66
2022/05/08 13:56:51;;;;;;;;;;;22.40;77.00;;;;;;5026130;28;19916;-67
2022/05/08 13:59:17;;;;;;;;;;;22.70;75.70;;;;;;5020566;28;19916;-69
2022/05/08 14:01:42;;;;;;;;;;;22.70;76.20;;;;;;5044315;28;20366;-68
2022/05/08 14:04:08;;;;;;;;;;;22.80;75.70;;;;;;5037150;28;19927;-69
2022/05/08 14:06:37;;;;;;;;;;;22.80;75.50;;;;;;5038585;28;20417;-68
2022/05/08 14:09:03;;;;;;;;;;;22.70;75.70;;;;;;5036895;28;20634;-66
2022/05/08 14:11:32;;;;;;;;;;;22.60;75.50;;;;;;5039673;28;20021;-67
2022/05/08 14:13:57;;;;;;;;;;;22.50;75.40;;;;;;5033993;28;19944;-67
2022/05/08 14:16:23;;;;;;;;;;;22.50;75.70;;;;;;5043209;28;20337;-67
2022/05/08 14:18:49;;;;;;;;;;;22.50;76.70;;;;;;5037547;28;19948;-67
2022/05/08 14:21:17;;;;;;;;;;;22.20;76.70;;;;;;5027432;28;19920;-68
2022/05/08 14:23:43;;;;;;;;;;;22.20;76.50;;;;;;5040532;28;19921;-65
2022/05/08 14:26:09;;;;;;;;;;;22.10;76.30;;;;;;5037474;28;20286;-69
2022/05/08 14:28:34;;;;;;;;;;;22.10;75.70;;;;;;5038305;28;19912;-67
2022/05/08 14:36:30;;;;;;;;;;;23.10;75.00;;;;;;5036428;28;21368;-67
2022/05/08 14:38:55;;;;;;;;;;;23.00;74.40;;;;;;5033683;28;20390;-66
2022/05/08 14:41:24;;;;;;;;;;;23.00;74.10;;;;;;5037897;28;20015;-67
2022/05/08 14:43:49;;;;;;;;;;;23.00;75.10;;;;;;5030800;28;20382;-66
2022/05/08 14:46:15;;;;;;;;;;;23.10;75.10;;;;;;5033523;28;19956;-67
2022/05/08 14:48:40;;;;;;;;;;;22.60;74.90;;;;;;5028848;28;19916;-67
2022/05/08 14:51:06;;;;;;;;;;;22.30;75.40;;;;;;5037370;28;19909;-67
2022/05/08 14:53:34;;;;;;;;;;;22.20;74.80;;;;;;5044983;28;19917;-67